Latest Weather Observations for Ceduna

IDS60801

Issued at 1:35 pm CST Friday 25 April 2014 (issued every 30 minutes, with the page automatically refreshed every 10 minutes)

About weather observations | Map of weather stations | Latest weather observations for SA | Other Formats
Station Details ID: 018012 Name: CEDUNA AMO Lat: -32.13 Lon: 133.70 Height: 15.3 m
Data from the previous 72 hours. | See also: Recent months at Ceduna
Date/Time
CST
Temp
°C
App
Temp
°C
Dew
Point
Rel
Hum
%
Delta-T
°C
Wind Press
QNH
hPa
Press
MSL
hPa
Rain
since 9 am
mm
Dir
 
Spd
km/h
Gust
km/h
Spd
kts
Gust
kts
25/01:30pm 24.5 19.1 6.3 31 9.4 NNE 24 32 13 17 1010.5 1010.5 0.0
25/01:00pm 24.1 18.3 6.2 31 9.2 N 26 33 14 18 1011.3 - 0.0
25/12:30pm 23.7 17.5 6.1 32 9.0 NNE 28 37 15 20 1011.8 1011.8 0.0
25/12:00pm 23.1 17.0 6.5 34 8.5 NNE 28 35 15 19 1012.6 1012.6 0.0
25/11:30am 22.8 17.1 6.9 36 8.2 NNE 26 33 14 18 1013.2 1013.2 0.0
25/11:00am 22.2 15.6 7.6 39 7.6 NNE 32 37 17 20 1013.8 - 0.0
25/10:30am 21.5 15.7 8.1 42 7.0 N 28 33 15 18 1014.2 1014.2 0.0
25/10:00am 20.7 15.5 8.7 46 6.3 NNE 26 35 14 19 1014.4 - 0.0
25/09:30am 19.8 14.6 8.7 48 5.8 NNE 26 33 14 18 1014.8 1014.8 0.0
25/09:00am 18.5 13.0 9.1 54 4.9 NNE 28 35 15 19 1014.6 1014.6 0.0
25/08:30am 17.0 13.3 9.5 61 3.9 NE 19 24 10 13 1014.8 1014.8 0.0
25/08:00am 15.6 11.9 9.4 66 3.2 NE 19 24 10 13 1014.8 - 0.0
25/07:30am 13.2 9.3 9.3 77 2.0 NE 20 24 11 13 1014.5 1014.5 0.0
25/07:00am 11.2 7.8 9.0 86 1.1 NE 17 20 9 11 1014.2 - 0.0
25/06:30am 11.3 7.6 9.3 87 1.0 ENE 19 22 10 12 1014.1 1014.1 0.0
25/06:00am 11.6 8.0 9.8 89 0.9 ENE 19 22 10 12 1014.3 1014.3 0.0
25/05:30am 12.3 8.8 10.2 87 1.1 ENE 19 24 10 13 1014.3 1014.3 0.0
25/05:00am 12.2 10.0 10.7 90 0.8 ENE 13 13 7 7 1014.5 - 0.0
25/04:30am 12.7 10.6 11.0 89 0.9 ENE 13 17 7 9 1014.3 1014.3 0.0
25/04:00am 11.5 9.9 10.3 92 0.6 NE 9 13 5 7 1014.4 - 0.0
25/03:30am 11.8 10.3 10.4 91 0.7 NNE 9 11 5 6 1014.8 1014.8 0.0
25/03:00am 11.9 9.6 10.5 91 0.7 ENE 13 17 7 9 1014.9 1014.9 0.0
25/02:30am 11.6 9.7 10.4 92 0.6 ENE 11 13 6 7 1015.1 1015.1 0.0
25/02:00am 11.4 9.1 10.4 94 0.5 ENE 13 15 7 8 1015.3 - 0.0
25/01:30am 10.8 9.1 9.8 93 0.5 ENE 9 11 5 6 1015.6 1015.6 0.0
25/01:00am 10.8 10.3 9.4 91 0.7 ENE 2 6 1 3 1016.2 - 0.0
25/12:30am 11.0 9.3 10.0 93 0.5 NE 9 13 5 7 1016.5 1016.5 0.0
25/12:00am 11.8 9.9 10.6 92 0.6 ENE 11 13 6 7 1016.8 1016.8 0.0
 
Date/Time
CST
Temp
°C
App
Temp
°C
Dew
Point
Rel
Hum
%
Delta-T
°C
Wind Press
QNH
hPa
Press
MSL
hPa
Rain
since 9 am
mm
Dir
 
Spd
km/h
Gust
km/h
Spd
kts
Gust
kts
24/11:30pm 11.1 9.9 10.3 95 0.4 N 7 9 4 5 1017.2 1017.2 0.0
24/11:00pm 11.8 10.7 10.8 94 0.5 E 7 9 4 5 1017.5 - 0.0
24/10:30pm 13.2 12.5 12.1 93 0.6 E 7 9 4 5 1017.7 1017.7 0.0
24/10:00pm 13.8 12.1 12.5 92 0.7 ESE 13 15 7 8 1017.8 - 0.0
24/09:30pm 14.3 12.7 12.8 91 0.8 SE 13 17 7 9 1017.8 1017.8 0.0
24/09:00pm 13.2 11.4 12.1 93 0.6 ESE 13 15 7 8 1017.7 1017.7 0.0
24/08:30pm 14.6 13.1 13.0 90 0.9 SE 13 17 7 9 1017.5 1017.5 0.0
24/08:00pm 15.8 14.4 13.5 86 1.3 SE 13 17 7 9 1017.4 - 0.0
24/07:30pm 16.3 14.8 14.2 87 1.2 SSE 15 19 8 10 1017.4 1017.4 0.0
24/07:00pm 16.6 15.4 14.1 85 1.4 SSE 13 17 7 9 1017.0 - 0.0
24/06:30pm 17.3 15.8 14.1 81 1.8 S 15 19 8 10 1016.8 1016.8 0.0
24/06:00pm 17.9 15.6 14.2 79 2.1 S 19 26 10 14 1016.7 1016.7 0.0
24/05:30pm 18.9 16.3 13.8 72 2.9 S 20 28 11 15 1016.6 1016.6 0.0
24/05:00pm 19.7 17.1 13.8 69 3.4 S 20 26 11 14 1016.6 - 0.0
24/04:30pm 20.3 17.5 12.7 61 4.3 S 19 24 10 13 1016.6 1016.6 0.0
24/04:00pm 20.2 17.5 13.6 66 3.8 S 20 24 11 13 1016.6 - 0.0
24/03:30pm 20.7 17.9 13.2 62 4.3 S 20 24 11 13 1016.6 1016.6 0.0
24/03:00pm 20.8 17.2 12.9 60 4.5 SSW 24 30 13 16 1016.6 1016.6 0.0
24/02:30pm 21.3 18.0 12.9 58 4.8 SSW 22 26 12 14 1016.9 1016.9 0.0
24/02:00pm 21.0 17.7 12.7 59 4.7 SSW 22 26 12 14 1017.1 - 0.0
24/01:30pm 21.6 18.1 12.2 55 5.3 SSW 22 26 12 14 1017.4 1017.4 0.0
24/01:00pm 22.1 18.5 11.9 52 5.7 SW 22 28 12 15 1017.9 - 0.0
24/12:30pm 21.5 18.4 12.3 55 5.2 SSW 20 28 11 15 1018.4 1018.4 0.0
24/12:00pm 21.1 18.9 12.2 56 5.0 S 15 22 8 12 1018.8 1018.8 0.0
24/11:30am 20.7 18.0 11.7 56 5.0 S 17 22 9 12 1019.0 1019.0 0.0
24/11:00am 20.0 17.2 11.5 58 4.7 S 17 24 9 13 1019.2 - 0.0
24/10:30am 20.7 18.7 12.7 60 4.5 S 15 20 8 11 1019.3 1019.3 0.0
24/10:00am 19.3 19.3 14.1 72 3.0 S 7 13 4 7 1019.4 - 0.0
24/09:30am 18.1 19.5 14.3 78 2.2 CALM 0 4 0 2 1019.6 1019.6 0.0
24/09:00am 15.1 14.9 12.9 87 1.2 N 6 7 3 4 1019.5 1019.5 0.0
24/08:37am 12.4 13.0 11.8 96 0.3 CALM 0 0 0 0 1019.5 - 0.0
24/08:35am 12.3 12.8 11.7 96 0.3 CALM 0 0 0 0 1019.5 - 0.0
24/08:32am 11.9 12.4 11.5 97 0.2 CALM 0 0 0 0 1019.5 - 0.0
24/08:30am 11.7 12.1 11.3 97 0.2 CALM 0 0 0 0 1019.5 1019.5 0.0
24/08:00am 9.9 9.8 9.5 97 0.2 CALM 0 4 0 2 1019.3 - 0.0
24/07:30am 8.3 6.7 8.1 99 0.1 N 6 6 3 3 1019.0 1019.0 0.0
24/07:00am 8.1 6.2 7.7 97 0.2 NNE 7 7 4 4 1018.7 - 0.0
24/06:30am 8.1 6.7 7.2 94 0.4 N 4 7 2 4 1018.5 1018.5 0.0
24/06:00am 7.9 6.0 7.7 99 0.1 N 7 9 4 5 1018.2 1018.2 0.0
24/05:30am 7.4 5.6 7.0 97 0.2 N 6 7 3 4 1018.1 1018.1 0.0
24/05:00am 6.9 5.0 6.5 97 0.2 N 6 7 3 4 1017.8 - 0.0
24/04:30am 6.5 4.5 6.1 97 0.2 N 6 6 3 3 1017.6 1017.6 0.0
24/04:11am 6.8 4.8 6.1 95 0.3 N 6 6 3 3 1017.4 - 0.0
24/04:01am 6.6 4.7 6.6 100 0.0 N 6 7 3 4 1017.4 - 0.0
24/04:00am 6.9 5.0 6.5 97 0.2 N 6 7 3 4 1017.4 - 0.0
24/03:30am 7.4 5.6 7.0 97 0.2 N 6 7 3 4 1017.4 1017.4 0.0
24/03:24am 7.7 5.9 7.3 97 0.2 N 6 7 3 4 1017.4 - 0.0
24/03:02am 7.9 6.3 7.9 100 0.0 N 6 7 3 4 1017.4 - 0.0
24/03:00am 8.4 6.8 8.0 97 0.2 N 6 7 3 4 1017.5 1017.5 0.0
24/02:30am 7.9 6.0 6.6 91 0.6 N 6 7 3 4 1017.7 1017.7 0.0
24/02:00am 8.5 6.5 7.2 91 0.6 NNE 7 7 4 4 1017.8 - 0.0
24/01:30am 8.9 7.2 7.4 90 0.7 N 6 9 3 5 1017.9 1017.9 0.0
24/01:00am 8.6 6.8 7.3 91 0.6 N 6 7 3 4 1018.0 - 0.0
24/12:30am 9.6 7.9 8.4 92 0.6 N 7 7 4 4 1018.0 1018.0 0.0
24/12:00am 9.6 8.0 8.1 90 0.7 N 6 7 3 4 1018.1 1018.1 0.0
 
Date/Time
CST
Temp
°C
App
Temp
°C
Dew
Point
Rel
Hum
%
Delta-T
°C
Wind Press
QNH
hPa
Press
MSL
hPa
Rain
since 9 am
mm
Dir
 
Spd
km/h
Gust
km/h
Spd
kts
Gust
kts
23/11:30pm 9.9 8.3 8.7 92 0.6 N 7 7 4 4 1018.3 1018.3 0.0
23/11:00pm 10.8 9.2 8.8 87 1.0 N 7 7 4 4 1018.6 - 0.0
23/10:30pm 10.4 10.0 8.1 86 1.1 CALM 0 0 0 0 1018.4 1018.4 0.0
23/10:00pm 11.4 11.3 9.6 89 0.9 CALM 0 6 0 3 1018.3 - 0.0
23/09:30pm 12.7 11.6 10.0 84 1.4 SSW 6 7 3 4 1018.2 1018.2 0.0
23/09:00pm 14.4 13.6 11.8 84 1.4 WSW 7 7 4 4 1018.1 1018.1 0.0
23/08:30pm 15.6 14.0 11.7 77 2.1 WSW 11 15 6 8 1017.9 1017.9 0.0
23/08:00pm 16.5 14.4 11.3 71 2.8 WSW 13 17 7 9 1017.9 - 0.0
23/07:30pm 16.9 14.9 11.6 71 2.9 SW 13 19 7 10 1017.6 1017.6 0.0
23/07:00pm 17.3 14.5 11.2 67 3.3 SW 17 20 9 11 1017.4 - 0.0
23/06:30pm 17.2 14.7 10.9 66 3.4 SW 15 17 8 9 1017.0 1017.0 0.0
23/06:00pm 17.6 15.6 10.0 61 4.0 SW 11 15 6 8 1016.6 1016.6 0.0
23/05:30pm 18.8 15.4 9.3 54 5.0 WSW 17 22 9 12 1016.1 1016.1 0.0
23/05:00pm 19.2 15.6 10.0 55 4.9 SW 19 24 10 13 1015.9 - 0.0
23/04:30pm 19.5 15.1 8.8 50 5.6 SW 22 28 12 15 1016.0 1016.0 0.0
23/04:00pm 20.2 16.1 8.5 47 6.1 SW 20 24 11 13 1016.1 - 0.0
23/03:30pm 20.4 16.7 8.0 44 6.4 SW 17 22 9 12 1016.2 1016.2 0.0
23/03:00pm 20.6 16.9 8.1 44 6.5 SW 17 22 9 12 1016.2 1016.2 0.0
23/02:30pm 20.9 17.6 8.0 43 6.7 SW 15 20 8 11 1016.1 1016.1 0.0
23/02:00pm 20.2 17.0 7.0 42 6.7 SSW 13 19 7 10 1016.3 - 0.0
23/01:30pm 20.2 16.8 5.9 39 7.1 SW 13 19 7 10 1016.6 1016.6 0.0
23/01:00pm 19.8 16.5 6.4 41 6.7 SW 13 19 7 10 1017.1 - 0.0
23/12:30pm 19.0 16.4 7.6 47 5.8 SW 11 19 6 10 1017.6 1017.6 0.0
23/12:00pm 18.9 16.0 8.2 50 5.5 SW 13 19 7 10 1018.3 1018.3 0.0
23/11:30am 18.6 15.5 9.0 53 5.0 SW 15 19 8 10 1018.7 1018.7 0.0
23/11:00am 19.1 16.0 9.0 52 5.3 SW 15 19 8 10 1018.9 - 0.0
23/10:30am 19.6 18.6 8.7 49 5.7 NNE 4 9 2 5 1018.9 1018.9 0.0
23/10:00am 18.0 17.2 9.6 58 4.4 SE 4 7 2 4 1019.0 - 0.0
23/09:30am 16.9 15.8 9.8 63 3.7 E 6 7 3 4 1019.2 1019.2 0.0
23/09:00am 14.9 13.9 10.3 74 2.4 NE 6 7 3 4 1019.2 1019.2 0.0
23/08:30am 12.9 11.8 10.6 86 1.2 NNE 7 9 4 5 1019.1 1019.1 0.0
23/08:00am 9.0 8.2 8.0 93 0.5 NE 2 6 1 3 1019.2 - 0.0
23/07:30am 5.7 3.5 5.5 99 0.1 NE 6 7 3 4 1018.9 1018.9 0.0
23/07:17am 5.6 3.3 5.6 100 0.0 NE 7 7 4 4 1018.7 - 0.0
23/07:12am 6.4 4.2 6.2 99 0.1 NE 7 9 4 5 1018.6 - 0.0
23/07:00am 5.5 4.0 5.0 97 0.2 NE 2 7 1 4 1018.5 - 0.0
23/06:30am 5.5 3.1 5.3 99 0.1 NE 7 9 4 5 1018.3 1018.3 0.0
23/06:00am 5.2 2.9 4.7 97 0.2 NE 6 7 3 4 1018.1 1018.1 0.0
23/05:50am 5.3 3.1 5.1 99 0.1 NE 6 7 3 4 1018.1 - 0.0
23/05:33am 5.8 2.8 5.8 100 0.0 NE 11 13 6 7 1018.0 - 0.0
23/05:30am 6.1 3.1 6.1 100 0.0 NE 11 13 6 7 1018.0 1018.0 0.0
23/05:00am 6.5 4.9 6.3 99 0.1 NE 4 7 2 4 1017.9 - 0.0
23/04:47am 5.9 4.8 5.2 95 0.3 CALM 0 0 0 0 1017.8 - 0.0
23/04:30am 6.5 4.3 5.4 93 0.5 NE 6 7 3 4 1017.7 1017.7 0.0
23/04:00am 6.4 3.8 6.0 97 0.2 ENE 9 9 5 5 1017.8 - 0.0
23/03:30am 6.2 3.5 5.5 95 0.3 ENE 9 11 5 6 1018.0 1018.0 0.0
23/03:00am 6.6 4.3 5.7 94 0.4 ENE 7 9 4 5 1018.3 1018.3 0.0
23/02:30am 6.5 3.4 5.6 94 0.4 ENE 11 13 6 7 1018.4 1018.4 0.0
23/02:00am 7.1 4.5 6.2 94 0.4 E 9 11 5 6 1018.7 - 0.0
23/01:30am 8.7 6.5 7.9 95 0.4 E 9 11 5 6 1019.0 1019.0 0.0
23/01:00am 8.8 6.6 7.7 93 0.5 E 9 9 5 5 1019.2 - 0.0
23/12:30am 8.4 5.7 7.3 93 0.5 E 11 13 6 7 1019.4 1019.4 0.0
23/12:00am 10.6 8.0 9.4 92 0.6 E 13 15 7 8 1019.7 1019.7 0.0
 
Date/Time
CST
Temp
°C
App
Temp
°C
Dew
Point
Rel
Hum
%
Delta-T
°C
Wind Press
QNH
hPa
Press
MSL
hPa
Rain
since 9 am
mm
Dir
 
Spd
km/h
Gust
km/h
Spd
kts
Gust
kts
22/11:30pm 9.5 7.4 8.3 92 0.6 SE 9 11 5 6 1020.0 1020.0 0.0
22/11:00pm 10.7 8.5 9.3 91 0.7 SSE 11 13 6 7 1020.1 - 0.0
22/10:30pm 11.7 10.0 9.7 87 1.0 SSE 9 11 5 6 1020.2 1020.2 0.0
22/10:00pm 13.5 11.6 10.6 82 1.5 SSE 11 13 6 7 1020.2 - 0.0
22/09:30pm 14.5 12.3 10.9 79 1.9 SSE 13 15 7 8 1020.1 1020.1 0.0
22/09:00pm 15.8 13.2 10.7 71 2.7 S 15 20 8 11 1020.1 1020.1 0.0
22/08:30pm 15.4 12.8 10.7 73 2.5 S 15 19 8 10 1020.0 1020.0 0.0
22/08:00pm 16.0 12.9 10.3 69 3.0 S 17 20 9 11 1019.7 - 0.0
22/07:30pm 16.2 12.8 10.5 69 3.0 S 19 24 10 13 1019.4 1019.4 0.0
22/07:00pm 16.4 12.9 10.3 67 3.2 S 19 22 10 12 1019.1 - 0.0
22/06:30pm 16.5 13.1 10.5 67 3.2 S 19 26 10 14 1019.0 1019.0 0.0
22/06:00pm 17.0 13.1 10.8 67 3.3 S 22 28 12 15 1018.7 1018.7 0.0
22/05:30pm 17.9 13.3 11.0 64 3.7 S 26 32 14 17 1018.4 1018.4 0.0
22/05:00pm 18.3 12.9 10.9 62 4.0 S 30 37 16 20 1018.3 - 0.0
22/04:30pm 18.6 13.1 10.6 59 4.3 S 30 39 16 21 1018.3 1018.3 0.0
22/04:00pm 19.4 13.9 10.5 56 4.8 S 30 39 16 21 1018.2 - 0.0
22/03:30pm 20.0 13.9 9.9 52 5.4 S 32 39 17 21 1018.1 1018.1 0.0
22/03:00pm 19.9 13.9 10.2 53 5.2 S 32 39 17 21 1018.1 1018.1 0.0
22/02:30pm 19.9 14.3 10.0 53 5.3 S 30 37 16 20 1018.1 1018.1 0.0
22/02:00pm 19.6 13.7 10.5 55 4.9 S 32 43 17 23 1018.2 - 0.0

Other Formats:

Comma delimited format used in spreadsheet applications
http://www.bom.gov.au/fwo/IDS60801/IDS60801.94653.axf

JavaScript Object Notation format (JSON) in row-major order
http://www.bom.gov.au/fwo/IDS60801/IDS60801.94653.json